Time;durP1;ratioP1;P1;durP2;ratioP2;P2;SDS_P1;SDS_P2;PMS_P1;PMS_P2;Temp;Humidity;BMP_temperature;BMP_pressure;BME280_temperature;BME280_humidity;BME280_pressure;Samples;Min_cycle;Max_cycle;Signal;HPM_P1;HPM_P2
2021/07/02 00:02:14;;;;;;;7.65;4.57;;;;;;;17.98;73.29;100327.34;5085443;28;20032;-73
2021/07/02 00:04:40;;;;;;;9.20;5.18;;;;;;;17.95;73.43;100328.34;5085425;28;20020;-72
2021/07/02 00:07:05;;;;;;;8.63;5.30;;;;;;;17.95;73.36;100324.84;5085423;28;20027;-72
2021/07/02 00:09:30;;;;;;;8.85;5.00;;;;;;;17.93;73.26;100321.44;5085182;28;20051;-71
2021/07/02 00:11:56;;;;;;;9.00;5.25;;;;;;;17.96;73.08;100318.66;5085377;28;20133;-72
2021/07/02 00:14:21;;;;;;;9.45;5.50;;;;;;;18.03;72.95;100324.53;5085255;28;20020;-71
2021/07/02 00:16:47;;;;;;;6.63;4.68;;;;;;;17.99;72.93;100307.22;5083820;28;20039;-71
2021/07/02 00:19:12;;;;;;;9.43;4.93;;;;;;;18.14;72.72;100327.59;5083804;28;20491;-71
2021/07/02 00:21:37;;;;;;;9.35;5.75;;;;;;;18.23;72.47;100325.53;5085088;28;20024;-72
2021/07/02 00:24:03;;;;;;;11.55;5.75;;;;;;;18.18;72.42;100317.81;5085080;28;20040;-72
2021/07/02 00:26:28;;;;;;;9.45;5.47;;;;;;;18.22;72.38;100322.03;5085346;28;20071;-71
2021/07/02 00:28:54;;;;;;;9.32;5.65;;;;;;;18.28;72.00;100321.78;5085186;28;20103;-72
2021/07/02 00:31:19;;;;;;;9.23;5.38;;;;;;;18.29;71.98;100312.97;5083772;28;20016;-74
2021/07/02 00:33:44;;;;;;;7.47;4.90;;;;;;;18.32;71.81;100325.97;5084961;28;20028;-73
2021/07/02 00:36:10;;;;;;;6.43;5.15;;;;;;;18.25;71.82;100311.38;5084963;28;20028;-72
2021/07/02 00:38:35;;;;;;;6.47;4.90;;;;;;;18.26;72.05;100322.75;5083684;28;20025;-72
2021/07/02 00:41:01;;;;;;;8.40;5.00;;;;;;;18.21;72.04;100315.09;5084910;28;20471;-74
2021/07/02 00:43:26;;;;;;;8.93;5.15;;;;;;;18.21;72.12;100317.72;5084738;28;20039;-72
2021/07/02 00:45:52;;;;;;;7.25;4.90;;;;;;;18.13;72.13;100309.28;5084430;28;20082;-73
2021/07/02 00:48:17;;;;;;;6.78;4.57;;;;;;;18.11;72.28;100319.81;5082828;28;20040;-73
2021/07/02 00:50:44;;;;;;;10.05;4.60;;;;;;;18.05;72.51;100320.09;5082832;28;20051;-73
2021/07/02 00:53:14;;;;;;;7.40;4.68;;;;;;;17.97;72.71;100315.16;5084254;28;20031;-74
2021/07/02 00:55:41;;;;;;;11.23;4.65;;;;;;;17.90;72.76;100316.28;5083521;28;20046;-72
2021/07/02 00:58:07;;;;;;;8.02;5.25;;;;;;;17.84;72.70;100313.00;5082666;28;20379;-74
2021/07/02 01:00:32;;;;;;;6.90;4.95;;;;;;;17.67;73.31;100295.31;5084242;28;20054;-72
2021/07/02 01:02:58;;;;;;;8.32;5.25;;;;;;;17.62;73.34;100307.75;5083735;28;20051;-73
2021/07/02 01:05:23;;;;;;;10.27;5.22;;;;;;;17.58;73.51;100317.53;5083907;28;20016;-72
2021/07/02 01:07:49;;;;;;;9.18;5.38;;;;;;;17.52;74.02;100312.53;5083854;28;20032;-72
2021/07/02 01:10:17;;;;;;;7.43;4.50;;;;;;;17.45;74.15;100311.91;5084116;28;20247;-72
2021/07/02 01:12:43;;;;;;;6.70;5.38;;;;;;;17.37;74.23;100310.47;5082281;28;20025;-72
2021/07/02 01:15:25;;;;;;;8.13;5.10;;;;;;;17.34;74.29;100309.72;5083942;28;20024;-72
2021/07/02 01:17:50;;;;;;;;;;;;;;;17.32;74.42;100313.28;5083850;28;20040;-72
2021/07/02 01:20:20;;;;;;;7.18;4.97;;;;;;;17.12;74.92;100293.94;5083755;28;19912;-72
2021/07/02 01:22:45;;;;;;;8.05;5.70;;;;;;;17.15;74.97;100308.69;5084012;28;20052;-73
2021/07/02 01:25:11;;;;;;;8.35;5.25;;;;;;;17.15;75.22;100314.81;5083278;28;20481;-73
2021/07/02 01:27:37;;;;;;;8.75;4.97;;;;;;;17.11;75.79;100309.72;5083669;28;20027;-72
2021/07/02 01:30:06;;;;;;;9.15;5.25;;;;;;;17.09;75.66;100304.53;5083636;28;20021;-74
2021/07/02 01:32:31;;;;;;;6.80;5.25;;;;;;;17.09;75.90;100292.25;5082004;28;20028;-72
2021/07/02 01:34:57;;;;;;;8.82;5.53;;;;;;;17.08;75.87;100300.19;5081963;28;20021;-72
2021/07/02 01:37:22;;;;;;;8.40;6.35;;;;;;;17.11;76.04;100309.72;5083195;28;20024;-72
2021/07/02 01:39:48;;;;;;;8.55;4.93;;;;;;;17.05;75.95;100308.13;5083562;28;20468;-71
2021/07/02 01:42:13;;;;;;;8.60;5.07;;;;;;;17.13;75.81;100313.13;5083169;28;20031;-73
2021/07/02 01:44:39;;;;;;;11.00;5.95;;;;;;;17.06;76.01;100315.94;5083021;28;20024;-73
2021/07/02 01:47:05;;;;;;;10.10;5.50;;;;;;;17.06;76.02;100305.47;5081613;28;20043;-72
2021/07/02 01:49:33;;;;;;;7.70;5.22;;;;;;;17.00;76.00;100305.69;5083103;28;20527;-72
2021/07/02 01:51:58;;;;;;;12.77;6.90;;;;;;;17.07;76.01;100303.69;5083052;28;20489;-72
2021/07/02 01:54:24;;;;;;;8.18;5.10;;;;;;;16.96;75.85;100301.47;5082769;28;20050;-73
2021/07/02 01:56:49;;;;;;;8.35;5.53;;;;;;;17.01;76.14;100322.28;5082828;28;20043;-72
2021/07/02 01:59:16;;;;;;;8.77;5.68;;;;;;;16.95;76.06;100303.25;5083152;28;20020;-70
2021/07/02 02:01:43;;;;;;;8.60;6.72;;;;;;;16.95;76.32;100303.25;5082850;28;20028;-72
2021/07/02 02:04:08;;;;;;;7.78;5.30;;;;;;;16.98;76.12;100305.75;5082701;28;20060;-72
2021/07/02 02:06:34;;;;;;;11.73;6.10;;;;;;;17.08;76.29;100308.91;5081939;28;20050;-73
2021/07/02 02:08:59;;;;;;;7.30;5.15;;;;;;;17.17;75.94;100319.97;5081696;28;20012;-72
2021/07/02 02:11:25;;;;;;;9.68;5.75;;;;;;;17.17;75.82;100322.59;5082778;28;20036;-72
2021/07/02 02:13:50;;;;;;;9.80;5.20;;;;;;;17.16;75.63;100305.13;5082756;28;20025;-72
2021/07/02 02:16:15;;;;;;;7.05;5.53;;;;;;;17.24;75.34;100323.25;5081362;28;20052;-72
2021/07/02 02:18:41;;;;;;;9.77;5.32;;;;;;;17.17;75.51;100320.81;5081569;28;20120;-73
2021/07/02 02:21:06;;;;;;;8.45;5.25;;;;;;;17.13;75.26;100316.63;5082987;28;20024;-72
2021/07/02 02:23:31;;;;;;;10.98;5.93;;;;;;;17.13;75.22;100331.47;5082624;28;20032;-71
2021/07/02 02:25:57;;;;;;;7.80;5.32;;;;;;;17.12;75.14;100329.78;5082992;28;20112;-73
2021/07/02 02:28:22;;;;;;;9.02;5.35;;;;;;;17.07;75.12;100330.78;5082752;28;20077;-73
2021/07/02 02:30:48;;;;;;;6.80;5.22;;;;;;;16.95;75.54;100326.84;5081351;28;20050;-73
2021/07/02 02:33:13;;;;;;;12.70;5.55;;;;;;;16.95;75.35;100331.22;5082504;28;20521;-73
2021/07/02 02:35:38;;;;;;;8.77;6.05;;;;;;;16.93;75.59;100330.44;5082764;28;20021;-73
2021/07/02 02:38:04;;;;;;;10.65;5.47;;;;;;;16.84;75.77;100331.59;5082743;28;20029;-73
2021/07/02 02:40:29;;;;;;;8.70;5.57;;;;;;;16.80;75.98;100337.88;5082578;28;20024;-71
2021/07/02 02:42:55;;;;;;;8.35;5.57;;;;;;;16.73;76.08;100329.38;5081070;28;20044;-73
2021/07/02 02:45:20;;;;;;;9.25;5.60;;;;;;;16.66;76.28;100330.53;5081312;28;20025;-73
2021/07/02 02:47:45;;;;;;;9.75;6.00;;;;;;;16.64;76.14;100333.19;5081181;28;20052;-73
2021/07/02 02:50:11;;;;;;;10.05;5.63;;;;;;;16.62;76.26;100331.50;5081103;28;20082;-73
2021/07/02 02:52:36;;;;;;;11.60;6.47;;;;;;;16.57;76.39;100331.69;5080981;28;20036;-74
2021/07/02 02:55:02;;;;;;;13.05;5.85;;;;;;;16.50;76.61;100322.31;5082547;28;20395;-73
2021/07/02 02:57:27;;;;;;;8.43;5.90;;;;;;;16.54;76.58;100332.66;5082182;28;20021;-73
2021/07/02 02:59:53;;;;;;;14.43;5.75;;;;;;;16.53;76.60;100328.31;5082393;28;20032;-74
2021/07/02 03:02:18;;;;;;;8.05;6.05;;;;;;;16.55;76.59;100333.50;5080945;28;20302;-73
2021/07/02 03:04:43;;;;;;;8.30;5.80;;;;;;;16.56;76.74;100330.84;5082302;28;20028;-73
2021/07/02 03:07:09;;;;;;;9.60;5.18;;;;;;;16.59;76.67;100330.72;5081047;28;20019;-73
2021/07/02 03:09:35;;;;;;;11.35;6.07;;;;;;;16.62;76.51;100336.75;5082174;28;20178;-73
2021/07/02 03:12:01;;;;;;;9.13;5.93;;;;;;;16.66;76.47;100333.13;5081144;28;20052;-73
2021/07/02 03:14:26;;;;;;;11.30;4.78;;;;;;;16.66;76.59;100330.53;5082366;28;20057;-73
2021/07/02 03:16:52;;;;;;;9.60;5.18;;;;;;;16.83;76.84;100327.28;5082418;28;20024;-74
2021/07/02 03:19:18;;;;;;;9.70;5.07;;;;;;;16.94;76.48;100326.91;5083651;28;20027;-72
2021/07/02 03:21:44;;;;;;;7.00;4.95;;;;;;;17.01;75.94;100332.78;5086007;28;20028;-72
2021/07/02 03:24:10;;;;;;;7.97;5.38;;;;;;;17.07;75.76;100338.66;5085818;28;20233;-72
2021/07/02 03:26:35;;;;;;;8.45;4.82;;;;;;;17.25;75.03;100341.53;5085966;28;20527;-72
2021/07/02 03:29:01;;;;;;;7.65;5.03;;;;;;;17.26;74.58;100343.25;5084503;28;20060;-72
2021/07/02 03:31:27;;;;;;;8.50;5.53;;;;;;;17.24;74.03;100333.72;5085900;28;20024;-73
2021/07/02 03:33:52;;;;;;;8.13;4.95;;;;;;;17.11;73.93;100333.34;5084164;28;20055;-73
2021/07/02 03:36:17;;;;;;;7.60;4.68;;;;;;;17.02;73.89;100343.22;5085458;28;20391;-72
2021/07/02 03:38:43;;;;;;;6.78;4.90;;;;;;;16.92;73.84;100340.06;5085927;28;20044;-73
2021/07/02 03:41:08;;;;;;;7.72;5.28;;;;;;;16.91;74.15;100345.38;5085697;28;20016;-73
2021/07/02 03:43:34;;;;;;;10.73;4.57;;;;;;;16.89;73.65;100350.66;5085653;28;20380;-73
2021/07/02 03:46:00;;;;;;;7.20;4.80;;;;;;;16.86;73.84;100342.91;5084808;28;20012;-74
2021/07/02 03:48:25;;;;;;;8.25;4.55;;;;;;;16.82;73.71;100328.22;5084160;28;20059;-72
2021/07/02 03:50:51;;;;;;;9.23;4.78;;;;;;;16.91;73.57;100340.13;5085663;28;20194;-72
2021/07/02 03:53:16;;;;;;;8.20;4.40;;;;;;;16.93;73.06;100346.16;5084142;28;20052;-72
2021/07/02 03:55:42;;;;;;;7.38;4.05;;;;;;;16.84;73.11;100348.19;5085663;28;20025;-72
2021/07/02 03:58:07;;;;;;;6.97;4.03;;;;;;;16.83;72.63;100341.25;5085434;28;20025;-72
2021/07/02 04:00:32;;;;;;;5.75;4.05;;;;;;;16.80;72.83;100356.22;5085656;28;20095;-72
2021/07/02 04:02:58;;;;;;;7.63;4.45;;;;;;;16.77;73.01;100345.84;5085564;28;20464;-72
2021/07/02 04:05:23;;;;;;;6.60;3.95;;;;;;;16.82;73.10;100349.19;5085478;28;20025;-72
2021/07/02 04:07:49;;;;;;;7.30;3.75;;;;;;;16.92;72.60;100341.81;5085383;28;20066;-72
2021/07/02 04:10:14;;;;;;;4.30;3.08;;;;;;;17.15;72.20;100348.91;5085232;28;20016;-71
2021/07/02 04:12:40;;;;;;;7.78;4.00;;;;;;;17.44;71.90;100351.34;5085297;28;20112;-72
2021/07/02 04:15:06;;;;;;;6.15;3.10;;;;;;;17.78;71.08;100339.50;5085354;28;20024;-72
2021/07/02 04:17:32;;;;;;;7.22;3.90;;;;;;;17.98;70.14;100345.75;5084004;28;20046;-72
2021/07/02 04:19:57;;;;;;;4.18;3.13;;;;;;;18.45;69.26;100357.00;5085668;28;20107;-72
2021/07/02 04:22:23;;;;;;;5.93;3.53;;;;;;;18.80;67.78;100349.34;5085125;28;20020;-71
2021/07/02 04:24:49;;;;;;;8.27;3.35;;;;;;;19.11;66.58;100349.78;5084780;28;20055;-72
2021/07/02 04:27:15;;;;;;;5.20;3.25;;;;;;;19.50;65.25;100350.66;5085055;28;20025;-72
2021/07/02 04:29:41;;;;;;;4.00;2.70;;;;;;;19.98;64.19;100352.81;5083875;28;20031;-71
2021/07/02 04:32:07;;;;;;;6.25;3.33;;;;;;;20.36;61.32;100361.53;5084944;28;20028;-72
2021/07/02 04:34:33;;;;;;;6.07;3.08;;;;;;;20.58;60.81;100350.72;5084529;28;20025;-72
2021/07/02 04:36:58;;;;;;;4.63;3.05;;;;;;;20.73;59.48;100354.38;5084575;28;20017;-73
2021/07/02 04:39:24;;;;;;;3.42;2.60;;;;;;;20.77;58.92;100345.34;5084393;28;20025;-71
2021/07/02 04:41:49;;;;;;;4.88;2.97;;;;;;;20.77;58.45;100345.34;5084503;28;20031;-74
2021/07/02 04:44:14;;;;;;;5.65;2.95;;;;;;;20.77;57.53;100352.41;5082785;28;20037;-73
2021/07/02 04:46:40;;;;;;;8.02;2.85;;;;;;;20.59;57.31;100367.41;5084056;28;20126;-71
2021/07/02 04:49:05;;;;;;;5.70;3.08;;;;;;;20.46;57.36;100357.50;5082690;28;20184;-73
2021/07/02 04:51:31;;;;;;;6.07;2.70;;;;;;;20.56;57.79;100357.88;5084307;28;20443;-73
2021/07/02 04:53:56;;;;;;;5.80;2.95;;;;;;;20.79;57.25;100354.06;5084202;28;20120;-74
2021/07/02 04:56:21;;;;;;;7.50;3.40;;;;;;;21.07;56.59;100361.47;5084247;28;20455;-75
2021/07/02 04:58:54;;;;;;;6.78;2.95;;;;;;;21.27;56.35;100363.88;5084162;28;20021;-72
2021/07/02 05:01:21;;;;;;;5.13;3.08;;;;;;;21.52;54.69;100366.94;5084411;28;20079;-73
2021/07/02 05:03:46;;;;;;;5.63;2.95;;;;;;;21.87;54.32;100363.31;5082701;28;20016;-73
2021/07/02 05:06:12;;;;;;;4.28;2.25;;;;;;;22.35;53.61;100357.06;5084206;28;20023;-74
2021/07/02 05:08:38;;;;;;;3.63;2.58;;;;;;;22.71;52.80;100344.38;5082797;28;20035;-71
2021/07/02 05:11:04;;;;;;;3.70;2.67;;;;;;;22.94;50.00;100355.38;5082736;28;20097;-75
2021/07/02 05:13:31;;;;;;;3.85;2.50;;;;;;;22.98;50.40;100354.22;5084015;28;20046;-75
2021/07/02 05:15:57;;;;;;;3.72;2.83;;;;;;;23.04;49.97;100335.31;5082379;28;20021;-74
2021/07/02 05:18:22;;;;;;;4.95;2.65;;;;;;;23.55;48.81;100359.59;5082298;28;20044;-75
2021/07/02 05:20:47;;;;;;;3.22;2.25;;;;;;;23.79;47.98;100364.25;5083528;28;20121;-77
2021/07/02 05:23:13;;;;;;;3.35;2.58;;;;;;;23.85;47.48;100363.84;5083453;28;20024;-74
2021/07/02 05:25:39;;;;;;;6.28;2.92;;;;;;;23.83;47.32;100366.59;5083432;28;20050;-75
2021/07/02 05:28:05;;;;;;;4.85;2.58;;;;;;;23.94;47.19;100368.53;5083466;28;20032;-74
2021/07/02 05:30:31;;;;;;;4.88;2.65;;;;;;;23.97;46.76;100375.44;5083559;28;20127;-74
2021/07/02 05:32:56;;;;;;;4.97;2.72;;;;;;;23.94;46.17;100379.13;5083718;28;20469;-73
2021/07/02 05:35:22;;;;;;;6.28;2.72;;;;;;;23.84;46.90;100378.03;5083473;28;20639;-74
2021/07/02 05:37:47;;;;;;;4.43;2.38;;;;;;;23.92;46.91;100375.72;5082357;28;20035;-72
2021/07/02 05:40:16;;;;;;;6.88;3.17;;;;;;;23.88;45.95;100376.91;5082206;28;20111;-70
2021/07/02 05:42:42;;;;;;;3.95;2.63;;;;;;;23.55;46.22;100392.22;5083309;28;20031;-69
2021/07/02 05:45:08;;;;;;;3.60;2.95;;;;;;;23.05;46.85;100392.63;5083199;28;20024;-68
2021/07/02 05:47:39;;;;;;;3.72;2.15;;;;;;;22.43;48.07;100398.94;5083144;28;20033;-69
2021/07/02 05:50:06;;;;;;;5.28;2.90;;;;;;;21.85;49.70;100394.25;5083418;28;20020;-76
2021/07/02 05:52:33;;;;;;;3.83;2.70;;;;;;;21.51;50.30;100391.66;5083331;28;20028;-75
2021/07/02 05:54:58;;;;;;;4.30;2.85;;;;;;;21.18;51.28;100391.63;5083047;28;20028;-68
2021/07/02 05:57:23;;;;;;;3.08;2.40;;;;;;;21.07;51.98;100388.69;5083014;28;20027;-68
2021/07/02 05:59:49;;;;;;;4.30;3.08;;;;;;;21.05;52.13;100388.78;5083489;28;20077;-68
2021/07/02 06:02:14;;;;;;;4.85;2.50;;;;;;;20.94;51.99;100391.16;5083262;28;20021;-68
2021/07/02 06:04:39;;;;;;;4.70;3.13;;;;;;;20.71;52.72;100395.81;5082962;28;20103;-69
2021/07/02 06:07:05;;;;;;;4.05;2.85;;;;;;;20.47;53.29;100388.22;5083190;28;20040;-68
2021/07/02 06:09:32;;;;;;;6.22;2.72;;;;;;;20.40;53.74;100395.56;5081798;28;20020;-72
2021/07/02 06:11:58;;;;;;;4.32;3.28;;;;;;;20.31;54.25;100385.47;5081757;28;20021;-78
2021/07/02 06:14:28;;;;;;;4.50;2.70;;;;;;;20.25;54.54;100380.53;5081631;28;20021;-77
2021/07/02 06:16:53;;;;;;;4.50;3.10;;;;;;;20.18;54.76;100377.31;5082747;28;20106;-74
2021/07/02 06:19:19;;;;;;;5.03;2.83;;;;;;;20.11;54.91;100384.69;5083023;28;20024;-76
2021/07/02 06:21:45;;;;;;;4.93;3.05;;;;;;;20.05;55.11;100384.97;5083159;28;20120;-76
2021/07/02 06:24:10;;;;;;;6.82;3.38;;;;;;;19.96;55.16;100390.66;5081287;28;20020;-75
2021/07/02 06:26:35;;;;;;;4.10;2.40;;;;;;;19.90;55.74;100386.56;5083000;28;20020;-74
2021/07/02 06:29:01;;;;;;;3.67;3.28;;;;;;;19.95;56.12;100376.66;5082923;28;20024;-74
2021/07/02 06:31:26;;;;;;;9.05;2.92;;;;;;;20.13;55.73;100385.47;5082912;28;20049;-76
2021/07/02 06:33:52;;;;;;;5.43;3.30;;;;;;;20.27;55.62;100391.84;5081606;28;20195;-75
2021/07/02 06:36:17;;;;;;;5.22;2.92;;;;;;;20.32;55.45;100389.81;5082911;28;20102;-74
2021/07/02 06:38:42;;;;;;;6.60;3.42;;;;;;;20.27;55.21;100371.59;5082703;28;20083;-75
2021/07/02 06:41:08;;;;;;;4.38;2.90;;;;;;;20.17;55.18;100380.91;5082857;28;20059;-75
2021/07/02 06:43:33;;;;;;;3.80;2.75;;;;;;;20.27;55.62;100394.50;5082770;28;20051;-74
2021/07/02 06:45:59;;;;;;;7.47;3.10;;;;;;;20.25;55.35;100391.94;5082981;28;20096;-74
2021/07/02 06:48:24;;;;;;;6.18;3.45;;;;;;;20.29;55.58;100388.19;5082860;28;20349;-74
2021/07/02 06:50:50;;;;;;;4.03;2.70;;;;;;;20.67;55.67;100383.72;5082795;28;20020;-75
2021/07/02 06:53:16;;;;;;;5.32;3.15;;;;;;;21.23;54.24;100367.63;5084198;28;20030;-73
2021/07/02 06:55:42;;;;;;;4.93;2.90;;;;;;;21.58;53.45;100377.16;5085576;28;20056;-73
2021/07/02 06:58:10;;;;;;;5.22;2.83;;;;;;;22.04;52.34;100379.03;5086823;28;20020;-75
2021/07/02 07:00:40;;;;;;;4.53;2.97;;;;;;;22.34;51.67;100373.84;5085813;28;20046;-75
2021/07/02 07:03:06;;;;;;;4.63;2.28;;;;;;;22.80;50.40;100378.22;5086812;28;20031;-74
2021/07/02 07:05:33;;;;;;;4.70;2.60;;;;;;;23.17;49.55;100372.47;5086453;28;20027;-74
2021/07/02 07:07:58;;;;;;;3.75;2.70;;;;;;;23.61;48.96;100364.50;5085026;28;20029;-74
2021/07/02 07:10:23;;;;;;;4.88;2.90;;;;;;;24.06;47.46;100381.94;5086646;28;20453;-74
2021/07/02 07:12:49;;;;;;;4.57;2.35;;;;;;;23.89;46.91;100376.78;5086458;28;20070;-75
2021/07/02 07:15:15;;;;;;;5.15;2.90;;;;;;;23.59;46.93;100371.69;5086094;28;20028;-77
2021/07/02 07:17:41;;;;;;;5.97;3.58;;;;;;;23.07;47.77;100371.34;5084788;28;20098;-72
2021/07/02 07:20:06;;;;;;;5.45;3.15;;;;;;;22.68;48.52;100393.06;5086199;28;20020;-77
2021/07/02 07:22:32;;;;;;;5.82;3.20;;;;;;;22.29;49.88;100382.06;5084964;28;20024;-75
2021/07/02 07:24:58;;;;;;;6.00;3.67;;;;;;;22.24;50.49;100381.47;5085865;28;20044;-73
2021/07/02 07:27:23;;;;;;;5.10;3.20;;;;;;;22.60;50.09;100388.22;5086326;28;20050;-73
2021/07/02 07:29:49;;;;;;;8.07;3.38;;;;;;;22.82;50.04;100373.69;5086203;28;20094;-72
2021/07/02 07:32:14;;;;;;;6.18;3.00;;;;;;;22.98;48.76;100372.75;5086298;28;20092;-73
2021/07/02 07:37:16;;;;;;;4.10;2.63;;;;;;;23.42;47.20;100393.94;5085871;28;20025;-73
2021/07/02 07:39:41;;;;;;;4.38;2.70;;;;;;;23.23;47.11;100385.31;5086243;28;20025;-73
2021/07/02 07:42:07;;;;;;;9.77;3.20;;;;;;;23.13;47.61;100379.75;5086145;28;20088;-71
2021/07/02 07:44:33;;;;;;;3.75;2.55;;;;;;;23.15;47.58;100374.34;5085902;28;20048;-71
2021/07/02 07:46:58;;;;;;;4.13;3.05;;;;;;;23.23;47.55;100369.44;5085805;28;20040;-76
2021/07/02 07:49:27;;;;;;;5.18;2.53;;;;;;;23.27;46.81;100370.94;5085780;28;20020;-73
2021/07/02 07:54:40;;;;;;;4.78;2.83;;;;;;;23.57;46.15;100369.13;5085851;28;20055;-73
2021/07/02 07:57:06;;;;;;;3.72;2.47;;;;;;;23.70;46.27;100370.97;5084419;28;20080;-73
2021/07/02 07:59:33;;;;;;;3.65;2.70;;;;;;;23.57;46.08;100385.03;5084208;28;20047;-73
2021/07/02 08:01:58;;;;;;;4.03;2.10;;;;;;;23.66;46.76;100386.22;5084249;28;20055;-72
2021/07/02 08:04:24;;;;;;;5.10;2.78;;;;;;;23.72;46.14;100391.13;5085324;28;20017;-74
2021/07/02 08:06:52;;;;;;;5.30;2.55;;;;;;;23.70;46.74;100389.53;5085605;28;20009;-78
2021/07/02 08:09:19;;;;;;;4.88;2.53;;;;;;;23.88;46.16;100390.16;5085858;28;20024;-75
2021/07/02 08:11:45;;;;;;;3.42;2.58;;;;;;;24.14;45.53;100387.56;5085674;28;20023;-72
2021/07/02 08:14:11;;;;;;;4.43;2.30;;;;;;;24.36;45.17;100383.53;5085369;28;20024;-72
2021/07/02 08:16:38;;;;;;;6.55;3.10;;;;;;;24.34;44.66;100377.47;5085311;28;20021;-74
2021/07/02 08:19:04;;;;;;;6.20;2.90;;;;;;;24.30;45.12;100379.47;5085302;28;20021;-73
2021/07/02 08:21:30;;;;;;;5.20;2.45;;;;;;;24.25;44.72;100394.81;5085239;28;20225;-74
2021/07/02 08:23:56;;;;;;;3.65;2.85;;;;;;;24.23;45.40;100386.16;5084971;28;20099;-72
2021/07/02 08:26:21;;;;;;;4.68;2.47;;;;;;;24.29;44.82;100379.56;5085184;28;20755;-75
2021/07/02 08:31:31;;;;;;;4.63;2.30;;;;;;;24.19;45.88;100389.94;5085415;28;20075;-73
2021/07/02 08:33:57;;;;;;;3.33;2.60;;;;;;;24.33;45.32;100381.91;5084952;28;20115;-73
2021/07/02 08:36:23;;;;;;;6.25;2.80;;;;;;;24.37;44.95;100382.56;5085151;28;20032;-75
2021/07/02 08:38:48;;;;;;;3.13;2.67;;;;;;;24.16;45.20;100385.69;5085162;28;20074;-74
2021/07/02 08:41:14;;;;;;;3.60;2.80;;;;;;;24.22;45.37;100390.59;5085101;28;20073;-74
2021/07/02 08:43:41;;;;;;;4.55;3.15;;;;;;;24.41;45.02;100381.38;5084650;28;20035;-73
2021/07/02 08:46:15;;;;;;;4.47;2.67;;;;;;;24.60;44.93;100394.25;5084028;28;20027;-74
2021/07/02 08:48:44;;;;;;;3.97;3.00;;;;;;;24.72;44.65;100381.97;5084827;28;20024;-72
2021/07/02 08:51:10;;;;;;;3.22;2.55;;;;;;;25.05;44.06;100378.91;5083065;28;20091;-75
2021/07/02 08:53:38;;;;;;;4.28;3.00;;;;;;;25.22;43.96;100375.91;5084780;28;20027;-74
2021/07/02 08:56:04;;;;;;;4.53;2.83;;;;;;;25.45;43.62;100368.06;5084582;28;20025;-73
2021/07/02 08:58:31;;;;;;;4.32;2.35;;;;;;;25.68;43.38;100372.69;5084021;28;20027;-74
2021/07/02 09:00:57;;;;;;;6.07;2.63;;;;;;;26.14;42.36;100376.41;5082604;28;20484;-75
2021/07/02 09:03:29;;;;;;;3.83;3.05;;;;;;;26.28;41.74;100375.38;5083637;28;20052;-73
2021/07/02 09:06:15;;;;;;;3.90;2.53;;;;;;;26.20;42.17;100373.28;5083938;28;20044;-74
2021/07/02 09:09:00;;;;;;;3.40;2.45;;;;;;;26.37;41.95;100376.53;5083883;28;20028;-75
2021/07/02 09:11:28;;;;;;;3.67;2.95;;;;;;;26.39;41.44;100379.06;5084325;28;20044;-73
2021/07/02 09:13:54;;;;;;;5.88;3.50;;;;;;;26.54;41.57;100377.03;5083792;28;20085;-74
2021/07/02 09:16:25;;;;;;;3.78;2.80;;;;;;;26.80;41.08;100376.84;5082196;28;20020;-74
2021/07/02 09:18:52;;;;;;;3.47;2.72;;;;;;;26.85;41.24;100382.66;5083781;28;20024;-76
2021/07/02 09:21:28;;;;;;;6.20;3.15;;;;;;;26.88;41.15;100379.75;5081799;28;20439;-74
2021/07/02 09:23:58;;;;;;;4.70;2.70;;;;;;;26.75;41.11;100371.88;5083494;28;20024;-74
2021/07/02 09:26:41;;;;;;;2.88;2.45;;;;;;;26.56;41.02;100365.31;5082073;28;20025;-75
2021/07/02 09:29:29;;;;;;;4.32;2.72;;;;;;;25.82;42.21;100384.97;5083365;28;20028;-76
2021/07/02 09:32:00;;;;;;;4.78;3.38;;;;;;;25.67;43.51;100374.50;5083373;28;20028;-74
2021/07/02 09:34:51;;;;;;;4.00;2.88;;;;;;;25.97;42.89;100381.19;5083442;28;20031;-72
2021/07/02 09:37:27;;;;;;;4.68;2.45;;;;;;;25.80;43.02;100368.31;5081707;28;20041;-74
2021/07/02 09:39:53;;;;;;;4.95;2.90;;;;;;;25.79;43.56;100377.22;5083281;28;20024;-72
2021/07/02 09:42:29;;;;;;;3.85;2.40;;;;;;;25.84;43.80;100367.97;5083158;28;20130;-73
2021/07/02 09:45:14;;;;;;;4.03;2.78;;;;;;;26.12;43.48;100370.34;5081689;28;20028;-72
2021/07/02 09:47:42;;;;;;;5.05;2.85;;;;;;;26.48;42.96;100371.25;5081336;28;20045;-73
2021/07/02 09:50:24;;;;;;;4.80;2.78;;;;;;;27.18;42.17;100382.78;5083068;28;20123;-72
2021/07/02 09:52:59;;;;;;;4.78;3.30;;;;;;;26.78;41.22;100371.63;5083037;28;20032;-72
2021/07/02 09:55:42;;;;;;;4.28;3.00;;;;;;;26.11;42.74;100380.16;5081549;28;20098;-72
2021/07/02 09:58:19;;;;;;;4.30;2.60;;;;;;;26.27;42.89;100378.13;5082942;28;20024;-72
2021/07/02 10:00:48;;;;;;;3.65;2.53;;;;;;;26.44;42.93;100375.06;5083054;28;20339;-72
2021/07/02 10:03:15;;;;;;;4.15;2.28;;;;;;;26.84;41.86;100384.47;5081548;28;20051;-71
2021/07/02 10:05:46;;;;;;;4.82;2.80;;;;;;;26.51;42.08;100375.47;5082673;28;20039;-71
2021/07/02 10:08:12;;;;;;;5.30;3.10;;;;;;;26.05;42.73;100385.94;5082985;28;20021;-73
2021/07/02 10:10:37;;;;;;;4.10;2.67;;;;;;;25.46;43.94;100375.06;5082951;28;20272;-75
2021/07/02 10:13:04;;;;;;;4.38;3.00;;;;;;;25.05;45.14;100373.59;5082571;28;20029;-76
2021/07/02 10:15:29;;;;;;;3.83;2.92;;;;;;;24.59;45.92;100378.44;5082687;28;20060;-73
2021/07/02 10:17:57;;;;;;;5.50;3.25;;;;;;;24.37;46.52;100378.13;5082799;28;20092;-75
2021/07/02 10:20:26;;;;;;;5.65;2.90;;;;;;;24.25;47.30;100387.72;5083272;28;20142;-74
2021/07/02 10:22:58;;;;;;;4.28;2.75;;;;;;;24.33;47.61;100387.22;5081528;28;20025;-74
2021/07/02 10:25:26;;;;;;;5.15;2.85;;;;;;;24.55;46.87;100387.56;5081361;28;20044;-74
2021/07/02 10:27:52;;;;;;;4.78;3.17;;;;;;;24.37;47.28;100387.88;5083271;28;20013;-75
2021/07/02 10:30:17;;;;;;;4.55;2.30;;;;;;;24.17;47.52;100398.00;5086707;28;20542;-76
2021/07/02 10:32:45;;;;;;;6.07;3.47;;;;;;;23.86;48.42;100392.03;5086719;28;20029;-75
2021/07/02 10:35:15;;;;;;;3.95;3.45;;;;;;;23.90;48.89;100396.19;5086555;28;20017;-74
2021/07/02 10:37:45;;;;;;;4.38;3.08;;;;;;;24.37;48.24;100390.53;5085357;28;20046;-74
2021/07/02 10:40:32;;;;;;;6.75;3.38;;;;;;;24.66;47.08;100392.16;5086551;28;20023;-74
2021/07/02 10:43:08;;;;;;;4.25;3.17;;;;;;;24.70;47.49;100383.88;5086751;28;20158;-74
2021/07/02 10:45:33;;;;;;;6.40;3.25;;;;;;;24.78;46.96;100382.50;5086636;28;20029;-72
2021/07/02 10:47:59;;;;;;;6.10;3.72;;;;;;;24.64;47.66;100381.63;5085107;28;20059;-74
2021/07/02 10:50:40;;;;;;;5.50;3.45;;;;;;;24.50;47.93;100380.78;5086384;28;20039;-74
2021/07/02 10:53:25;;;;;;;5.15;3.22;;;;;;;24.38;48.68;100379.81;5085337;28;20025;-75
2021/07/02 10:55:51;;;;;;;4.85;3.42;;;;;;;24.35;48.73;100387.97;5086118;28;20027;-75
2021/07/02 10:58:17;;;;;;;4.55;3.40;;;;;;;24.07;48.93;100383.63;5086367;28;20036;-75
2021/07/02 11:01:09;;;;;;;6.25;4.07;;;;;;;23.81;50.00;100387.03;5086352;28;20030;-74
2021/07/02 11:03:35;;;;;;;5.68;4.00;;;;;;;23.57;50.71;100376.22;5085930;28;20039;-72
2021/07/02 11:06:40;;;;;;;5.00;3.42;;;;;;;23.47;51.43;100378.59;5086117;28;20024;-72
2021/07/02 11:09:07;;;;;;;6.07;4.13;;;;;;;23.34;51.97;100389.09;5085985;28;20024;-74
2021/07/02 11:12:04;;;;;;;6.00;3.35;;;;;;;23.20;52.41;100384.66;5085880;28;20025;-72
2021/07/02 11:14:29;;;;;;;7.03;4.22;;;;;;;23.22;52.59;100391.56;5085670;28;20032;-73
2021/07/02 11:17:31;;;;;;;5.38;3.63;;;;;;;23.21;53.40;100395.16;5085812;28;20025;-73
2021/07/02 11:20:09;;;;;;;5.95;3.60;;;;;;;23.27;53.73;100389.47;5053120;28;20041;-74
2021/07/02 11:22:39;;;;;;;6.88;4.18;;;;;;;23.39;53.81;100381.72;5085820;28;20031;-74
2021/07/02 11:25:11;;;;;;;7.93;4.45;;;;;;;23.46;54.23;100388.34;5084247;28;20027;-75
2021/07/02 11:27:41;;;;;;;;;;;;;;;23.56;53.59;100387.78;5086472;28;20025;-74
2021/07/02 11:30:29;;;;;;;7.03;4.07;;;;;;;23.33;54.32;100397.97;5085998;28;19912;-74
2021/07/02 11:33:01;;;;;;;5.93;4.43;;;;;;;23.15;54.85;100387.59;5085833;28;20032;-72
2021/07/02 11:35:28;;;;;;;;;;;;;;;23.13;54.72;100386.84;5086034;28;20032;-72